createdAt,value
2023-05-08T00:03:57.955Z,20.44
2023-05-08T00:09:00.263Z,20.49
2023-05-08T00:14:02.603Z,20.44
2023-05-08T00:19:04.993Z,20.18
2023-05-08T00:24:07.562Z,20.44
2023-05-08T00:29:09.853Z,20.30
2023-05-08T00:34:12.080Z,20.22
2023-05-08T00:39:14.327Z,20.52
2023-05-08T00:44:17.177Z,20.49
2023-05-08T00:49:19.820Z,20.44
2023-05-08T00:54:22.737Z,20.29
2023-05-08T00:59:26.660Z,20.45
2023-05-08T01:04:32.323Z,20.37
2023-05-08T01:09:34.885Z,20.22
2023-05-08T01:14:50.661Z,20.06
2023-05-08T01:20:30.174Z,20.18
2023-05-08T01:26:09.192Z,20.15
2023-05-08T01:31:23.276Z,20.14
2023-05-08T01:36:38.120Z,20.19
2023-05-08T01:41:47.069Z,20.08
2023-05-08T01:46:51.500Z,19.59
2023-05-08T01:52:43.659Z,19.95
2023-05-08T01:57:49.718Z,19.98
2023-05-08T02:02:55.300Z,19.89
2023-05-08T02:07:59.215Z,19.60
2023-05-08T02:13:03.136Z,19.47
2023-05-08T02:18:07.629Z,19.72
2023-05-08T02:23:10.777Z,19.35
2023-05-08T02:28:13.301Z,19.56
2023-05-08T02:33:17.229Z,19.58
2023-05-08T02:38:22.140Z,19.14
2023-05-08T02:43:24.894Z,19.37
2023-05-08T02:48:34.873Z,19.16
2023-05-08T02:53:46.994Z,18.96
2023-05-08T02:59:19.445Z,18.88
2023-05-08T03:04:32.705Z,18.91
2023-05-08T03:09:42.364Z,18.94
2023-05-08T03:15:13.700Z,18.56
2023-05-08T03:20:20.164Z,18.88
2023-05-08T03:25:23.868Z,18.56
2023-05-08T03:30:28.043Z,18.74
2023-05-08T03:35:32.155Z,18.76
2023-05-08T03:40:37.347Z,18.85
2023-05-08T03:45:41.943Z,18.63
2023-05-08T03:50:45.351Z,18.58
2023-05-08T03:55:47.712Z,18.40
2023-05-08T04:00:49.899Z,18.64
2023-05-08T04:06:48.534Z,18.61
2023-05-08T04:12:15.471Z,18.67
2023-05-08T04:17:41.939Z,18.76
2023-05-08T04:22:47.186Z,18.78
2023-05-08T04:27:54.714Z,18.76
2023-05-08T04:32:58.519Z,18.74
2023-05-08T04:38:01.311Z,18.92
2023-05-08T04:43:03.778Z,18.78
2023-05-08T04:48:06.779Z,18.94
2023-05-08T04:53:09.700Z,19.16
2023-05-08T04:58:11.912Z,19.35
2023-05-08T05:03:14.634Z,19.27
2023-05-08T05:08:16.965Z,19.21
2023-05-08T05:13:20.431Z,19.51
2023-05-08T05:18:22.818Z,19.60
2023-05-08T05:23:25.049Z,19.47
2023-05-08T05:28:27.408Z,19.69
2023-05-08T05:33:29.856Z,19.82
2023-05-08T05:38:32.202Z,19.90
2023-05-08T05:43:34.405Z,19.90
2023-05-08T05:48:36.718Z,20.16
2023-05-08T05:53:38.944Z,20.24
2023-05-08T05:58:45.160Z,20.21
2023-05-08T06:03:47.945Z,20.39
2023-05-08T06:08:50.357Z,20.33
2023-05-08T06:13:52.554Z,19.86
2023-05-08T06:18:54.845Z,20.51
2023-05-08T06:23:57.141Z,20.70
2023-05-08T06:28:59.387Z,20.84
2023-05-08T06:34:01.649Z,21.09
2023-05-08T06:39:07.887Z,20.93
2023-05-08T06:44:10.259Z,20.96
2023-05-08T06:49:12.457Z,21.23
2023-05-08T06:54:14.668Z,21.36
2023-05-08T06:59:17.024Z,21.62
2023-05-08T07:04:19.624Z,21.66
2023-05-08T07:09:22.070Z,21.97
2023-05-08T07:14:24.242Z,22.04
2023-05-08T07:19:26.597Z,22.06
2023-05-08T07:24:28.890Z,22.32
2023-05-08T07:29:31.257Z,22.42
2023-05-08T07:34:35.336Z,22.58
2023-05-08T07:39:37.717Z,22.32
2023-05-08T07:44:53.215Z,22.67
2023-05-08T07:49:56.544Z,22.75
2023-05-08T07:54:59.162Z,22.76
2023-05-08T08:00:06.466Z,23.28
2023-05-08T08:05:09.555Z,23.39
2023-05-08T08:10:12.106Z,23.68
2023-05-08T08:15:14.889Z,23.45
2023-05-08T08:20:17.538Z,23.98
2023-05-08T08:25:19.849Z,23.81
2023-05-08T08:30:22.228Z,23.81
2023-05-08T08:35:29.819Z,23.99
2023-05-08T08:40:32.196Z,24.24
2023-05-08T08:45:34.594Z,24.73
2023-05-08T08:50:40.902Z,24.49
2023-05-08T08:55:47.193Z,25.12
2023-05-08T09:00:50.596Z,25.02
2023-05-08T09:05:54.402Z,24.77
2023-05-08T09:10:56.830Z,24.90
2023-05-08T09:16:00.127Z,25.19
2023-05-08T09:21:03.035Z,25.44
2023-05-08T09:26:05.425Z,25.82
2023-05-08T09:31:07.747Z,26.07
2023-05-08T09:36:29.032Z,25.86
2023-05-08T09:41:31.621Z,26.01
2023-05-08T09:46:34.792Z,26.37
2023-05-08T09:51:38.530Z,26.59
2023-05-08T09:56:41.630Z,26.70
2023-05-08T10:01:44.591Z,26.95
2023-05-08T10:06:58.128Z,27.01
2023-05-08T10:12:00.795Z,27.01
2023-05-08T10:17:10.677Z,27.41
2023-05-08T10:22:17.408Z,27.63
2023-05-08T10:27:31.034Z,28.06
2023-05-08T10:32:41.051Z,28.16
2023-05-08T10:37:48.516Z,28.40
2023-05-08T10:42:58.756Z,28.14
2023-05-08T10:48:22.226Z,27.88
2023-05-08T10:53:45.013Z,28.07
2023-05-08T10:58:56.539Z,28.14
2023-05-08T11:03:59.152Z,28.23
2023-05-08T11:09:01.484Z,28.54
2023-05-08T11:14:09.733Z,28.94
2023-05-08T11:19:20.063Z,29.06
2023-05-08T11:24:36.363Z,29.05
2023-05-08T11:29:39.349Z,28.78
2023-05-08T11:34:44.575Z,28.72
2023-05-08T11:39:50.690Z,28.79
2023-05-08T11:45:08.252Z,28.89
2023-05-08T11:50:16.616Z,28.99
2023-05-08T11:55:20.544Z,29.53
2023-05-08T12:00:23.223Z,29.88
2023-05-08T12:05:28.778Z,30.24
2023-05-08T12:10:31.026Z,30.36
2023-05-08T12:15:33.916Z,30.63
2023-05-08T12:20:36.195Z,30.79
2023-05-08T12:25:39.673Z,30.55
2023-05-08T12:30:42.616Z,30.47
2023-05-08T12:35:45.356Z,30.56
2023-05-08T12:40:53.502Z,29.72
2023-05-08T12:45:55.567Z,30.23
2023-05-08T12:51:07.826Z,30.75
2023-05-08T12:56:10.174Z,31.27
2023-05-08T13:01:17.084Z,31.14
2023-05-08T13:06:24.052Z,31.34
2023-05-08T13:11:34.712Z,31.20
2023-05-08T13:16:48.098Z,31.00
2023-05-08T13:21:50.625Z,30.84
2023-05-08T13:26:52.939Z,30.77
2023-05-08T13:31:55.320Z,31.02
2023-05-08T13:36:58.122Z,31.23
2023-05-08T13:42:00.758Z,31.63
2023-05-08T13:47:03.197Z,31.61
2023-05-08T13:52:05.836Z,31.56
2023-05-08T13:57:08.670Z,31.49
2023-05-08T14:02:11.296Z,31.93
2023-05-08T14:07:13.902Z,32.40
2023-05-08T14:12:16.379Z,32.53
2023-05-08T14:17:18.602Z,32.46
2023-05-08T14:22:20.839Z,32.82
2023-05-08T14:27:23.292Z,33.12
2023-05-08T14:32:28.765Z,33.10
2023-05-08T14:37:34.286Z,32.68
2023-05-08T14:42:36.965Z,32.08
2023-05-08T14:47:40.003Z,31.25
2023-05-08T14:52:42.323Z,31.01
2023-05-08T14:57:44.506Z,30.84
2023-05-08T15:02:47.025Z,30.56
2023-05-08T15:07:51.237Z,30.21
2023-05-08T15:12:53.579Z,29.75
2023-05-08T15:17:56.040Z,29.54
2023-05-08T15:22:58.307Z,29.15
2023-05-08T15:28:01.105Z,28.87
2023-05-08T15:33:03.725Z,28.59
2023-05-08T15:38:07.905Z,28.51
2023-05-08T15:43:10.232Z,28.34
2023-05-08T15:48:13.026Z,27.98
2023-05-08T15:53:15.430Z,27.88
2023-05-08T15:58:18.209Z,27.67
2023-05-08T16:03:20.838Z,27.37
2023-05-08T16:08:23.510Z,27.24
2023-05-08T16:13:25.770Z,27.02
2023-05-08T16:18:28.049Z,26.80
2023-05-08T16:23:30.308Z,26.76
2023-05-08T16:28:32.574Z,26.50
2023-05-08T16:33:34.756Z,26.41
2023-05-08T16:38:37.028Z,26.13
2023-05-08T16:43:39.403Z,26.06
2023-05-08T16:48:42.668Z,25.82
2023-05-08T16:53:44.898Z,25.85
2023-05-08T16:58:47.556Z,25.68
2023-05-08T17:03:49.852Z,25.39
2023-05-08T17:08:52.108Z,25.43
2023-05-08T17:13:54.286Z,25.35
2023-05-08T17:18:56.585Z,25.07
2023-05-08T17:24:02.163Z,24.98
2023-05-08T17:29:04.396Z,24.82
2023-05-08T17:34:06.625Z,24.65
2023-05-08T17:39:08.930Z,24.68
2023-05-08T17:44:11.301Z,24.49
2023-05-08T17:49:15.869Z,24.56
2023-05-08T17:54:19.506Z,24.25
2023-05-08T17:59:21.779Z,24.38
2023-05-08T18:04:24.817Z,24.28
2023-05-08T18:09:27.045Z,24.18
2023-05-08T18:14:32.920Z,24.08
2023-05-08T18:19:35.124Z,24.02
2023-05-08T18:24:37.341Z,23.97
2023-05-08T18:29:40.822Z,23.92
2023-05-08T18:34:43.036Z,23.71
2023-05-08T18:39:45.219Z,23.73
2023-05-08T18:44:47.482Z,23.87
2023-05-08T18:49:52.831Z,23.84
2023-05-08T18:54:55.059Z,23.80
2023-05-08T18:59:57.238Z,23.65
2023-05-08T19:04:59.510Z,23.57
2023-05-08T19:10:01.788Z,23.67
2023-05-08T19:15:04.200Z,23.56
2023-05-08T19:20:07.385Z,23.48
2023-05-08T19:25:10.328Z,23.52
2023-05-08T19:30:13.021Z,23.44
2023-05-08T19:35:15.352Z,23.13
2023-05-08T19:40:17.743Z,23.14
2023-05-08T19:45:20.036Z,23.22
2023-05-08T19:50:22.578Z,23.23
2023-05-08T19:55:24.855Z,23.11
2023-05-08T20:00:27.034Z,23.12
2023-05-08T20:05:29.445Z,23.34
2023-05-08T20:10:31.670Z,23.18
2023-05-08T20:15:34.028Z,23.19
2023-05-08T20:20:36.341Z,23.29
2023-05-08T20:25:38.644Z,23.08
2023-05-08T20:30:40.917Z,22.76
2023-05-08T20:35:43.338Z,22.73
2023-05-08T20:40:45.680Z,22.63
2023-05-08T20:45:49.609Z,22.82
2023-05-08T20:50:51.970Z,22.81
2023-05-08T20:56:01.154Z,22.60
2023-05-08T21:01:04.579Z,22.82
2023-05-08T21:06:07.326Z,22.78
2023-05-08T21:11:09.625Z,22.31
2023-05-08T21:16:12.416Z,22.11
2023-05-08T21:21:16.244Z,22.21
2023-05-08T21:26:20.318Z,22.52
2023-05-08T21:31:23.000Z,22.16
2023-05-08T21:36:25.350Z,22.19
2023-05-08T21:41:29.147Z,22.27
2023-05-08T21:46:31.493Z,22.24
2023-05-08T21:51:33.898Z,22.16
2023-05-08T21:56:36.108Z,22.18
2023-05-08T22:01:38.382Z,22.30
2023-05-08T22:06:40.667Z,22.37
2023-05-08T22:11:43.006Z,22.33
2023-05-08T22:16:45.337Z,22.01
2023-05-08T22:21:47.692Z,22.23
2023-05-08T22:26:49.967Z,22.23
2023-05-08T22:31:52.537Z,22.14
2023-05-08T22:36:54.765Z,22.03
2023-05-08T22:41:57.275Z,21.84
2023-05-08T22:46:59.642Z,21.84
2023-05-08T22:52:02.025Z,21.81
2023-05-08T22:57:04.384Z,21.64
2023-05-08T23:02:06.561Z,21.54
2023-05-08T23:07:08.785Z,21.73
2023-05-08T23:12:11.086Z,21.77
2023-05-08T23:17:14.372Z,21.57
2023-05-08T23:22:16.625Z,21.45
2023-05-08T23:27:18.826Z,21.65
2023-05-08T23:32:21.209Z,21.66
2023-05-08T23:37:23.406Z,21.50
2023-05-08T23:42:25.669Z,21.74
2023-05-08T23:47:27.931Z,21.70
2023-05-08T23:52:30.247Z,21.48
2023-05-08T23:57:32.479Z,21.49
